Аэропорт
Мацуяма (RJOM)

 RJOM / MYJ

Japan
JP-38
Мацуяма
 33.82720, 132.70000  / 25 ft

 RJOM 201200Z 11007KT CAVOK 08/01 Q1033
 TAF RJOM 201106Z 2012/2118 12006KT 9999 FEW030 BECMG 2100/2103 35007KT BECMG 2109/2112 12010KT

2020 © VATRUS division (Privacy Policy)